createdAt,value
2018-06-07T00:00:36.843Z,0.00
2018-06-07T00:02:08.651Z,0.00
2018-06-07T00:03:40.462Z,0.00
2018-06-07T00:05:12.272Z,0.00
2018-06-07T00:06:44.087Z,0.00
2018-06-07T00:08:15.893Z,0.00
2018-06-07T00:09:47.703Z,0.00
2018-06-07T00:11:19.513Z,0.00
2018-06-07T00:12:51.324Z,0.00
2018-06-07T00:14:23.235Z,0.00
2018-06-07T00:15:54.945Z,0.00
2018-06-07T00:17:26.755Z,0.00
2018-06-07T00:18:58.566Z,0.00
2018-06-07T00:20:30.379Z,0.00
2018-06-07T00:22:02.190Z,0.00
2018-06-07T00:23:33.996Z,0.00
2018-06-07T00:25:05.807Z,0.00
2018-06-07T00:26:37.632Z,0.00
2018-06-07T00:28:09.427Z,0.00
2018-06-07T00:29:41.238Z,0.00
2018-06-07T00:31:13.048Z,0.00
2018-06-07T00:32:44.958Z,0.00
2018-06-07T00:34:16.668Z,0.00
2018-06-07T00:35:48.479Z,0.00
2018-06-07T00:37:20.289Z,0.00
2018-06-07T00:38:52.105Z,0.00
2018-06-07T00:40:23.913Z,0.00
2018-06-07T00:41:55.721Z,0.00
2018-06-07T00:43:27.530Z,0.00
2018-06-07T00:44:59.341Z,0.00
2018-06-07T00:46:31.151Z,0.00
2018-06-07T00:48:02.961Z,0.00
2018-06-07T00:49:34.772Z,0.00
2018-06-07T00:51:06.682Z,0.00
2018-06-07T00:52:38.393Z,0.00
2018-06-07T00:54:10.203Z,0.00
2018-06-07T00:55:42.012Z,0.00
2018-06-07T00:57:13.822Z,0.00
2018-06-07T00:58:45.647Z,0.00
2018-06-07T01:00:17.443Z,0.00
2018-06-07T01:01:49.252Z,0.00
2018-06-07T01:03:21.063Z,0.00
2018-06-07T01:04:52.874Z,0.00
2018-06-07T01:06:24.687Z,0.00
2018-06-07T01:07:56.493Z,0.00
2018-06-07T01:09:28.402Z,0.00
2018-06-07T01:11:00.113Z,0.00
2018-06-07T01:12:31.924Z,0.00
2018-06-07T01:14:03.733Z,0.00
2018-06-07T01:15:35.555Z,0.00
2018-06-07T01:17:07.352Z,0.00
2018-06-07T01:18:39.163Z,0.00
2018-06-07T01:20:10.973Z,0.00
2018-06-07T01:21:42.783Z,0.00
2018-06-07T01:23:14.593Z,0.00
2018-06-07T01:24:46.403Z,0.00
2018-06-07T01:26:18.212Z,0.00
2018-06-07T01:27:50.122Z,0.00
2018-06-07T01:29:21.832Z,0.00
2018-06-07T01:30:53.643Z,0.00
2018-06-07T01:32:25.453Z,0.00
2018-06-07T01:33:57.262Z,0.00
2018-06-07T01:35:29.071Z,0.00
2018-06-07T01:37:00.881Z,0.00
2018-06-07T01:38:32.691Z,0.00
2018-06-07T01:40:04.499Z,0.00
2018-06-07T01:41:36.310Z,0.00
2018-06-07T01:43:08.120Z,0.00
2018-06-07T01:44:39.934Z,0.00
2018-06-07T01:46:11.841Z,0.00
2018-06-07T01:47:43.549Z,0.00
2018-06-07T01:49:15.359Z,0.00
2018-06-07T01:50:47.174Z,0.00
2018-06-07T01:52:18.978Z,0.00
2018-06-07T01:53:50.788Z,0.00
2018-06-07T01:55:22.598Z,0.00
2018-06-07T01:56:54.408Z,0.00
2018-06-07T01:58:26.216Z,0.00
2018-06-07T01:59:58.028Z,0.00
2018-06-07T02:01:29.838Z,0.00
2018-06-07T02:03:01.647Z,0.00
2018-06-07T02:04:33.808Z,0.00
2018-06-07T02:06:05.267Z,0.00
2018-06-07T02:07:37.076Z,0.00
2018-06-07T02:09:08.889Z,0.00
2018-06-07T02:10:40.695Z,0.00
2018-06-07T02:12:12.505Z,0.00
2018-06-07T02:13:44.315Z,0.00
2018-06-07T02:15:16.124Z,0.00
2018-06-07T02:16:47.934Z,0.00
2018-06-07T02:18:19.744Z,0.00
2018-06-07T02:19:51.553Z,0.00
2018-06-07T02:21:23.361Z,0.00
2018-06-07T02:22:55.272Z,0.00
2018-06-07T02:24:26.980Z,0.00
2018-06-07T02:25:58.791Z,0.00
2018-06-07T02:27:30.599Z,0.00
2018-06-07T02:29:02.410Z,0.00
2018-06-07T02:30:34.218Z,0.00
2018-06-07T02:32:06.028Z,0.00
2018-06-07T02:33:37.837Z,0.00
2018-06-07T02:35:09.645Z,0.00
2018-06-07T02:36:41.456Z,0.00
2018-06-07T02:38:13.267Z,0.00
2018-06-07T02:39:45.079Z,0.00
2018-06-07T02:41:16.986Z,0.00
2018-06-07T02:42:48.695Z,0.00
2018-06-07T02:44:20.505Z,0.00
2018-06-07T02:45:52.315Z,0.00
2018-06-07T02:47:24.125Z,0.00
2018-06-07T02:48:55.935Z,0.00
2018-06-07T02:50:27.748Z,0.00
2018-06-07T02:51:59.555Z,0.00
2018-06-07T02:53:31.365Z,0.00
2018-06-07T02:55:03.176Z,0.00
2018-06-07T02:56:34.985Z,0.00
2018-06-07T02:58:06.795Z,0.00
2018-06-07T02:59:38.704Z,0.00
2018-06-07T03:01:10.416Z,0.00
2018-06-07T03:02:42.224Z,0.00
2018-06-07T03:04:14.035Z,0.00
2018-06-07T03:05:45.845Z,0.00
2018-06-07T03:07:17.657Z,0.00
2018-06-07T03:08:49.465Z,0.00
2018-06-07T03:10:21.278Z,0.00
2018-06-07T03:11:53.084Z,0.00
2018-06-07T03:13:24.894Z,0.00
2018-06-07T03:14:56.705Z,0.00
2018-06-07T03:16:28.515Z,0.00
2018-06-07T03:18:00.426Z,0.00
2018-06-07T03:21:03.946Z,0.00
2018-06-07T03:22:35.757Z,0.00
2018-06-07T03:24:07.567Z,0.00
2018-06-07T03:25:39.378Z,0.00
2018-06-07T03:27:11.189Z,0.00
2018-06-07T03:28:42.999Z,0.00
2018-06-07T03:30:14.822Z,0.00
2018-06-07T03:31:46.704Z,0.00
2018-06-07T03:33:18.437Z,0.00
2018-06-07T03:34:50.776Z,0.00
2018-06-07T03:36:22.155Z,0.00
2018-06-07T03:37:53.864Z,0.00
2018-06-07T03:39:25.674Z,0.00
2018-06-07T03:40:57.485Z,0.00
2018-06-07T03:42:29.295Z,0.00
2018-06-07T03:44:01.131Z,0.00
2018-06-07T03:45:32.917Z,0.00
2018-06-07T03:47:04.728Z,0.00
2018-06-07T03:48:36.539Z,0.00
2018-06-07T03:50:08.353Z,0.00
2018-06-07T03:51:40.162Z,0.00
2018-06-07T03:53:11.969Z,0.00
2018-06-07T03:54:43.881Z,0.00
2018-06-07T03:56:15.591Z,0.00
2018-06-07T03:57:47.402Z,0.00
2018-06-07T03:59:19.212Z,0.00
2018-06-07T04:00:51.023Z,0.00
2018-06-07T04:02:22.878Z,0.00
2018-06-07T04:03:54.645Z,0.00
2018-06-07T04:05:26.455Z,0.00
2018-06-07T04:06:58.266Z,0.00
2018-06-07T04:08:30.077Z,0.00
2018-06-07T04:10:01.888Z,0.00
2018-06-07T04:11:33.699Z,0.00
2018-06-07T04:13:05.609Z,0.00
2018-06-07T04:14:37.323Z,0.00
2018-06-07T04:16:09.139Z,0.00
2018-06-07T04:17:40.941Z,0.00
2018-06-07T04:19:12.752Z,0.00
2018-06-07T04:20:44.565Z,0.00
2018-06-07T04:22:16.373Z,0.00
2018-06-07T04:23:48.183Z,0.00
2018-06-07T04:25:19.994Z,0.00
2018-06-07T04:26:51.803Z,0.00
2018-06-07T04:28:23.613Z,0.00
2018-06-07T04:29:55.425Z,0.00
2018-06-07T04:31:27.334Z,0.00
2018-06-07T04:32:59.045Z,0.00
2018-06-07T04:34:30.856Z,0.00
2018-06-07T04:36:02.665Z,0.00
2018-06-07T04:37:34.475Z,0.00
2018-06-07T04:39:06.285Z,0.00
2018-06-07T04:40:38.096Z,0.00
2018-06-07T04:42:09.907Z,0.00
2018-06-07T04:43:41.715Z,0.00
2018-06-07T04:45:13.525Z,0.00
2018-06-07T04:46:45.335Z,0.00
2018-06-07T04:48:17.146Z,0.00
2018-06-07T04:49:49.060Z,0.00
2018-06-07T04:51:20.765Z,0.00
2018-06-07T04:52:52.576Z,0.00
2018-06-07T04:54:24.387Z,0.00
2018-06-07T04:55:56.447Z,0.00
2018-06-07T04:57:28.012Z,0.00
2018-06-07T04:58:59.818Z,0.00
2018-06-07T05:00:31.670Z,0.00
2018-06-07T05:02:03.442Z,0.00
2018-06-07T05:03:35.249Z,0.00
2018-06-07T05:05:07.060Z,0.00
2018-06-07T05:06:38.923Z,0.00
2018-06-07T05:08:10.783Z,0.00
2018-06-07T05:09:42.492Z,0.00
2018-06-07T05:11:14.303Z,0.00
2018-06-07T05:12:46.113Z,0.00
2018-06-07T05:14:17.925Z,0.00
2018-06-07T05:15:49.735Z,0.00
2018-06-07T05:17:21.547Z,0.00
2018-06-07T05:18:53.357Z,0.00
2018-06-07T05:20:25.167Z,0.00
2018-06-07T05:21:56.977Z,0.00
2018-06-07T05:23:28.788Z,0.00
2018-06-07T05:25:00.600Z,0.00
2018-06-07T05:26:32.911Z,0.00
2018-06-07T05:28:04.219Z,0.00
2018-06-07T05:29:36.031Z,0.00
2018-06-07T05:31:07.842Z,0.00
2018-06-07T05:32:39.653Z,0.00
2018-06-07T05:34:11.465Z,0.00
2018-06-07T05:35:43.273Z,0.00
2018-06-07T05:37:15.085Z,0.00
2018-06-07T05:38:46.943Z,0.00
2018-06-07T05:40:18.707Z,0.00
2018-06-07T05:41:50.517Z,0.00
2018-06-07T05:43:22.327Z,0.00
2018-06-07T05:44:54.238Z,0.00
2018-06-07T05:46:25.949Z,0.00
2018-06-07T05:47:57.759Z,0.00
2018-06-07T05:49:29.571Z,0.00
2018-06-07T05:51:01.380Z,0.00
2018-06-07T05:52:33.190Z,0.00
2018-06-07T05:54:05.001Z,0.00
2018-06-07T05:55:36.811Z,0.00
2018-06-07T05:57:08.872Z,0.00
2018-06-07T05:58:40.461Z,0.00
2018-06-07T06:00:12.242Z,0.00
2018-06-07T06:01:44.051Z,0.00
2018-06-07T06:03:15.963Z,0.00
2018-06-07T06:04:47.673Z,0.00
2018-06-07T06:06:19.484Z,0.00
2018-06-07T06:07:51.293Z,0.00
2018-06-07T06:09:23.146Z,0.00
2018-06-07T06:10:54.915Z,0.00
2018-06-07T06:12:26.725Z,0.00
2018-06-07T06:13:58.536Z,0.00
2018-06-07T06:15:30.346Z,0.00
2018-06-07T06:17:02.159Z,0.00
2018-06-07T06:18:33.965Z,0.00
2018-06-07T06:20:05.776Z,0.00
2018-06-07T06:21:37.738Z,0.00
2018-06-07T06:23:09.398Z,0.00
2018-06-07T06:24:41.208Z,0.00
2018-06-07T06:26:13.018Z,0.00
2018-06-07T06:27:45.124Z,0.00
2018-06-07T06:29:16.639Z,0.00
2018-06-07T06:30:48.449Z,0.00
2018-06-07T06:32:20.260Z,0.00
2018-06-07T06:33:52.068Z,0.00
2018-06-07T06:35:23.878Z,0.00
2018-06-07T06:36:55.689Z,0.00
2018-06-07T06:38:27.498Z,0.00
2018-06-07T06:39:59.408Z,0.00
2018-06-07T06:41:31.118Z,0.00
2018-06-07T06:43:02.928Z,0.00
2018-06-07T06:44:34.738Z,0.00
2018-06-07T06:46:06.550Z,0.00
2018-06-07T06:47:38.357Z,0.00
2018-06-07T06:49:10.229Z,0.00
2018-06-07T06:50:41.976Z,0.00
2018-06-07T06:52:13.785Z,0.00
2018-06-07T06:53:45.596Z,0.00
2018-06-07T06:55:17.405Z,0.00
2018-06-07T06:56:49.216Z,0.00
2018-06-07T06:58:21.426Z,0.00
2018-06-07T06:59:52.836Z,0.00
2018-06-07T07:01:24.646Z,0.00
2018-06-07T07:02:56.455Z,0.00
2018-06-07T07:04:28.264Z,0.00
2018-06-07T07:06:00.076Z,0.00
2018-06-07T07:07:31.887Z,0.00
2018-06-07T07:09:03.754Z,0.00
2018-06-07T07:10:35.505Z,0.00
2018-06-07T07:12:07.316Z,0.00
2018-06-07T07:13:39.123Z,0.00
2018-06-07T07:15:10.935Z,0.00
2018-06-07T07:16:42.842Z,0.00
2018-06-07T07:18:14.555Z,0.00
2018-06-07T07:19:46.362Z,0.00
2018-06-07T07:21:18.172Z,0.00
2018-06-07T07:22:49.982Z,0.00
2018-06-07T07:24:21.791Z,0.00
2018-06-07T07:25:53.600Z,0.00
2018-06-07T07:27:25.409Z,0.00
2018-06-07T07:28:57.470Z,0.00
2018-06-07T07:30:29.027Z,0.00
2018-06-07T07:32:00.838Z,0.00
2018-06-07T07:33:32.648Z,0.00
2018-06-07T07:35:04.557Z,0.00
2018-06-07T07:36:36.267Z,0.00
2018-06-07T07:38:08.076Z,0.00
2018-06-07T07:39:39.888Z,0.00
2018-06-07T07:41:11.695Z,0.00
2018-06-07T07:42:43.505Z,0.00
2018-06-07T07:44:15.315Z,0.00
2018-06-07T07:45:47.127Z,0.00
2018-06-07T07:47:18.935Z,0.00
2018-06-07T07:48:50.744Z,0.00
2018-06-07T07:50:22.554Z,0.00
2018-06-07T07:51:54.364Z,0.00
2018-06-07T07:53:26.273Z,0.00
2018-06-07T07:54:57.982Z,0.00
2018-06-07T07:56:29.791Z,0.00
2018-06-07T07:58:01.602Z,0.00
2018-06-07T07:59:33.661Z,0.00
2018-06-07T08:01:05.224Z,0.00
2018-06-07T08:02:37.037Z,0.00
2018-06-07T08:04:08.841Z,0.00
2018-06-07T08:05:40.715Z,0.00
2018-06-07T08:07:12.461Z,0.00
2018-06-07T08:08:44.270Z,0.00
2018-06-07T08:10:16.083Z,0.00
2018-06-07T08:11:47.992Z,0.00
2018-06-07T08:13:19.701Z,0.00
2018-06-07T08:14:51.511Z,0.00
2018-06-07T08:16:23.322Z,0.00
2018-06-07T08:17:55.138Z,0.00
2018-06-07T08:19:26.985Z,0.00
2018-06-07T08:20:58.753Z,0.00
2018-06-07T08:22:30.564Z,0.00
2018-06-07T08:24:02.402Z,0.00
2018-06-07T08:25:34.180Z,0.00
2018-06-07T08:27:05.991Z,0.00
2018-06-07T08:28:37.801Z,0.00
2018-06-07T08:30:09.712Z,0.00
2018-06-07T08:31:41.423Z,0.00
2018-06-07T08:33:13.232Z,0.00
2018-06-07T08:34:45.042Z,0.00
2018-06-07T08:36:16.852Z,0.00
2018-06-07T08:37:48.662Z,0.00
2018-06-07T08:39:20.498Z,0.00
2018-06-07T08:40:52.287Z,0.00
2018-06-07T08:42:24.094Z,0.00
2018-06-07T08:43:55.903Z,0.00
2018-06-07T08:45:27.714Z,0.00
2018-06-07T08:46:59.526Z,0.00
2018-06-07T08:48:31.436Z,0.00
2018-06-07T08:50:03.146Z,0.00
2018-06-07T08:51:34.957Z,0.00
2018-06-07T08:53:06.768Z,0.00
2018-06-07T08:54:38.580Z,0.00
2018-06-07T08:56:10.390Z,0.00
2018-06-07T08:57:42.201Z,0.00
2018-06-07T08:59:14.020Z,0.00
2018-06-07T09:00:45.824Z,0.00
2018-06-07T09:02:17.633Z,0.00
2018-06-07T09:03:49.447Z,0.00
2018-06-07T09:05:21.256Z,0.00
2018-06-07T09:06:54.668Z,0.00
2018-06-07T09:08:24.877Z,0.00
2018-06-07T09:09:56.687Z,0.00
2018-06-07T09:11:28.498Z,0.00
2018-06-07T09:13:00.310Z,0.00
2018-06-07T09:14:32.120Z,0.00
2018-06-07T09:16:03.932Z,0.00
2018-06-07T09:17:35.744Z,0.00
2018-06-07T09:19:07.555Z,0.00
2018-06-07T09:20:39.365Z,0.00
2018-06-07T09:22:11.176Z,0.00
2018-06-07T09:23:42.987Z,0.00
2018-06-07T09:25:14.898Z,0.00
2018-06-07T09:26:46.608Z,0.00
2018-06-07T09:28:18.419Z,0.00
2018-06-07T09:29:50.231Z,0.00
2018-06-07T09:31:22.040Z,0.00
2018-06-07T09:32:53.849Z,0.00
2018-06-07T09:34:25.721Z,0.00
2018-06-07T09:35:57.475Z,0.00
2018-06-07T09:37:29.282Z,0.00
2018-06-07T09:39:01.091Z,0.00
2018-06-07T09:40:32.902Z,0.00
2018-06-07T09:42:04.715Z,0.00
2018-06-07T09:43:36.622Z,0.00
2018-06-07T09:45:08.334Z,0.00
2018-06-07T09:46:40.142Z,5.63
2018-06-07T09:48:11.952Z,5.63
2018-06-07T09:49:43.762Z,5.63
2018-06-07T09:51:15.572Z,5.63
2018-06-07T09:52:47.444Z,11.25
2018-06-07T09:54:19.193Z,11.25
2018-06-07T09:55:51.002Z,11.25
2018-06-07T09:57:22.813Z,11.25
2018-06-07T09:58:54.630Z,16.88
2018-06-07T10:00:26.439Z,16.88
2018-06-07T10:01:58.495Z,16.88
2018-06-07T10:03:30.054Z,22.50
2018-06-07T10:05:01.864Z,22.50
2018-06-07T10:06:33.675Z,16.88
2018-06-07T10:08:05.487Z,22.50
2018-06-07T10:09:37.294Z,28.13
2018-06-07T10:11:09.105Z,33.75
2018-06-07T10:12:41.119Z,39.38
2018-06-07T10:14:12.725Z,39.38
2018-06-07T10:15:44.536Z,39.38
2018-06-07T10:17:16.346Z,45.00
2018-06-07T10:18:48.157Z,50.63
2018-06-07T10:20:20.067Z,56.25
2018-06-07T10:21:51.776Z,67.50
2018-06-07T10:24:55.462Z,78.75
2018-06-07T10:26:27.207Z,78.75
2018-06-07T10:27:59.016Z,73.13
2018-06-07T10:29:30.827Z,73.13
2018-06-07T10:31:02.638Z,78.75
2018-06-07T10:32:34.447Z,90.00
2018-06-07T10:34:06.258Z,90.00
2018-06-07T10:35:38.068Z,95.63
2018-06-07T10:37:09.881Z,101.25
2018-06-07T10:38:41.789Z,106.88
2018-06-07T10:41:45.311Z,90.00
2018-06-07T10:43:17.120Z,78.75
2018-06-07T10:44:48.931Z,78.75
2018-06-07T10:46:20.741Z,84.38
2018-06-07T10:47:52.551Z,95.63
2018-06-07T10:49:24.383Z,112.50
2018-06-07T10:50:56.180Z,135.00
2018-06-07T10:52:27.983Z,157.50
2018-06-07T10:54:00.009Z,163.13
2018-06-07T10:55:31.705Z,157.50
2018-06-07T10:58:35.328Z,123.75
2018-06-07T11:00:07.038Z,112.50
2018-06-07T11:01:38.849Z,123.75
2018-06-07T11:03:10.687Z,135.00
2018-06-07T11:04:42.471Z,140.63
2018-06-07T11:06:14.283Z,146.25
2018-06-07T11:07:46.093Z,135.00
2018-06-07T11:09:17.903Z,146.25
2018-06-07T11:10:49.719Z,151.88
2018-06-07T11:12:21.525Z,157.50
2018-06-07T11:13:53.540Z,185.63
2018-06-07T11:15:25.179Z,230.63
2018-06-07T11:16:57.365Z,281.25
2018-06-07T11:18:29.305Z,292.50
2018-06-07T11:20:00.581Z,292.50
2018-06-07T11:21:32.397Z,292.50
2018-06-07T11:23:04.208Z,281.25
2018-06-07T11:24:36.023Z,247.50
2018-06-07T11:26:07.829Z,219.38
2018-06-07T11:27:39.785Z,191.25
2018-06-07T11:29:11.490Z,168.75
2018-06-07T11:30:43.466Z,151.88
2018-06-07T11:32:15.379Z,140.63
2018-06-07T11:33:46.888Z,135.00
2018-06-07T11:35:18.800Z,129.38
2018-06-07T11:36:50.512Z,135.00
2018-06-07T11:38:22.336Z,135.00
2018-06-07T11:39:54.136Z,129.38
2018-06-07T11:41:25.949Z,123.75
2018-06-07T11:42:57.761Z,123.75
2018-06-07T11:44:29.573Z,112.50
2018-06-07T11:46:01.387Z,101.25
2018-06-07T11:49:05.042Z,101.25
2018-06-07T11:50:36.826Z,101.25
2018-06-07T11:52:08.635Z,101.25
2018-06-07T11:53:40.493Z,95.63
2018-06-07T11:55:12.358Z,101.25
2018-06-07T11:56:44.069Z,106.88
2018-06-07T11:58:16.247Z,123.75
2018-06-07T11:59:49.058Z,146.25
2018-06-07T12:01:21.704Z,163.13
2018-06-07T12:02:51.667Z,174.38
2018-06-07T12:04:23.128Z,202.50
2018-06-07T12:05:55.076Z,264.38
2018-06-07T12:07:26.880Z,365.63
2018-06-07T12:08:58.644Z,478.13
2018-06-07T12:10:30.376Z,579.38
2018-06-07T12:12:02.268Z,489.38
2018-06-07T12:13:34.111Z,461.25
2018-06-07T12:15:05.939Z,438.75
2018-06-07T12:16:37.632Z,416.25
2018-06-07T12:19:41.455Z,478.13
2018-06-07T12:21:13.095Z,590.63
2018-06-07T12:24:16.824Z,663.75
2018-06-07T12:25:48.555Z,742.50
2018-06-07T12:27:20.343Z,691.88
2018-06-07T12:28:52.132Z,540.00
2018-06-07T12:30:23.950Z,461.25
2018-06-07T12:33:27.677Z,466.88
2018-06-07T12:34:59.391Z,461.25
2018-06-07T12:36:31.206Z,438.75
2018-06-07T12:38:03.324Z,416.25
2018-06-07T12:41:06.651Z,405.00
2018-06-07T12:42:38.770Z,416.25
2018-06-07T12:44:10.482Z,388.13
2018-06-07T12:45:42.095Z,382.50
2018-06-07T12:47:14.112Z,365.63
2018-06-07T12:50:17.540Z,343.13
2018-06-07T12:51:49.557Z,365.63
2018-06-07T12:53:21.539Z,399.38
2018-06-07T12:54:52.983Z,427.50
2018-06-07T12:56:24.997Z,421.88
2018-06-07T12:57:56.638Z,410.63
2018-06-07T12:59:28.444Z,444.38
2018-06-07T13:01:00.240Z,506.25
2018-06-07T13:04:04.097Z,495.00
2018-06-07T13:05:35.883Z,455.63
2018-06-07T13:07:07.799Z,433.13
2018-06-07T13:10:11.124Z,472.50
2018-06-07T13:11:43.279Z,506.25
2018-06-07T13:13:14.961Z,540.00
2018-06-07T13:14:46.592Z,551.25
2018-06-07T13:16:18.451Z,528.75
2018-06-07T13:17:50.430Z,523.13
2018-06-07T13:19:22.012Z,534.38
2018-06-07T13:22:25.637Z,596.25
2018-06-07T13:23:57.452Z,630.00
2018-06-07T13:25:29.269Z,675.00
2018-06-07T13:27:01.082Z,804.38
2018-06-07T13:28:32.927Z,933.75
2018-06-07T13:30:05.346Z,911.25
2018-06-07T13:31:36.529Z,776.25
2018-06-07T13:33:08.359Z,736.88
2018-06-07T13:34:40.163Z,725.63
2018-06-07T13:36:12.504Z,753.75
2018-06-07T13:37:43.950Z,725.63
2018-06-07T13:39:15.607Z,776.25
2018-06-07T13:40:47.462Z,973.13
2018-06-07T13:42:19.387Z,1091.25
2018-06-07T13:43:51.053Z,1513.13
2018-06-07T13:52:07.606Z,1141.88
2018-06-07T13:55:09.352Z,933.75
2018-06-07T13:56:41.171Z,939.38
2018-06-07T13:58:12.988Z,680.63
2018-06-07T14:01:16.582Z,455.63
2018-06-07T14:02:48.401Z,365.63
2018-06-07T14:04:20.447Z,320.63
2018-06-07T14:05:52.083Z,315.00
2018-06-07T14:10:29.967Z,472.50
2018-06-07T14:13:31.121Z,618.75
2018-06-07T14:15:02.936Z,686.25
2018-06-07T14:16:34.757Z,624.38
2018-06-07T14:18:06.570Z,613.13
2018-06-07T14:19:38.384Z,658.13
2018-06-07T14:21:10.202Z,686.25
2018-06-07T14:22:42.018Z,742.50
2018-06-07T14:25:45.650Z,956.25
2018-06-07T14:27:17.471Z,1383.75
2018-06-07T14:28:49.399Z,1125.00
2018-06-07T14:30:21.102Z,1074.38
2018-06-07T14:31:53.410Z,978.75
2018-06-07T14:33:24.736Z,939.38
2018-06-07T14:34:56.653Z,1023.75
2018-06-07T14:36:28.370Z,826.88
2018-06-07T14:39:32.009Z,843.75
2018-06-07T14:41:04.028Z,1046.25
2018-06-07T14:44:07.668Z,877.50
2018-06-07T14:47:11.203Z,1192.50
2018-06-07T14:48:43.458Z,1316.25
2018-06-07T14:51:46.554Z,888.75
2018-06-07T14:53:18.522Z,849.38
2018-06-07T14:54:50.397Z,826.88
2018-06-07T14:56:22.011Z,826.88
2018-06-07T14:57:53.859Z,849.38
2018-06-07T14:59:25.647Z,815.63
2018-06-07T15:04:01.103Z,736.88
2018-06-07T15:05:33.366Z,736.88
2018-06-07T15:07:05.489Z,731.25
2018-06-07T15:08:36.612Z,635.63
2018-06-07T15:10:08.449Z,540.00
2018-06-07T15:11:40.735Z,421.88
2018-06-07T15:14:43.833Z,281.25
2018-06-07T15:17:47.494Z,225.00
2018-06-07T15:19:19.284Z,180.00
2018-06-07T15:20:51.101Z,275.63
2018-06-07T15:22:23.256Z,433.13
2018-06-07T15:23:54.835Z,573.75
2018-06-07T15:25:26.556Z,517.50
2018-06-07T15:26:58.368Z,551.25
2018-06-07T15:28:30.574Z,939.38
2018-06-07T15:30:02.002Z,500.63
2018-06-07T15:31:33.820Z,686.25
2018-06-07T15:33:05.877Z,669.38
2018-06-07T15:34:37.658Z,725.63
2018-06-07T15:36:09.474Z,821.25
2018-06-07T15:37:41.406Z,579.38
2018-06-07T15:39:12.910Z,444.38
2018-06-07T15:40:44.723Z,466.88
2018-06-07T15:42:16.742Z,337.50
2018-06-07T15:43:48.360Z,765.00
2018-06-07T15:45:20.176Z,708.75
2018-06-07T15:46:52.047Z,731.25
2018-06-07T15:49:55.629Z,568.13
2018-06-07T15:51:27.448Z,607.50
2018-06-07T15:52:59.277Z,607.50
2018-06-07T15:54:31.089Z,736.88
2018-06-07T15:56:03.508Z,883.13
2018-06-07T15:57:34.718Z,1642.50
2018-06-07T15:59:06.536Z,703.13
2018-06-07T16:00:38.571Z,596.25
2018-06-07T16:03:42.097Z,568.13
2018-06-07T16:05:13.808Z,658.13
2018-06-07T16:08:17.444Z,714.38
2018-06-07T16:09:50.173Z,613.13
2018-06-07T16:11:21.280Z,618.75
2018-06-07T16:14:24.718Z,1310.63
2018-06-07T16:17:28.597Z,675.00
2018-06-07T16:19:00.718Z,613.13
2018-06-07T16:20:32.309Z,613.13
2018-06-07T16:22:04.005Z,708.75
2018-06-07T16:23:35.722Z,579.38
2018-06-07T16:25:07.438Z,1299.38
2018-06-07T16:26:39.331Z,2193.75
2018-06-07T16:28:11.073Z,759.38
2018-06-07T16:29:42.907Z,1260.00
2018-06-07T16:31:14.711Z,826.88
2018-06-07T16:32:46.530Z,759.38
2018-06-07T16:34:18.405Z,922.50
2018-06-07T16:38:54.105Z,1496.25
2018-06-07T16:40:26.783Z,1890.00
2018-06-07T16:41:57.664Z,1974.38
2018-06-07T16:43:29.526Z,877.50
2018-06-07T16:46:32.971Z,1440.00
2018-06-07T16:48:04.817Z,2120.63
2018-06-07T16:49:37.055Z,2109.38
2018-06-07T16:51:08.413Z,956.25
2018-06-07T16:52:40.226Z,1440.00
2018-06-07T16:54:12.254Z,2092.50
2018-06-07T16:55:44.088Z,748.13
2018-06-07T16:57:15.648Z,708.75
2018-06-07T16:58:47.570Z,686.25
2018-06-07T17:00:19.747Z,1299.38
2018-06-07T17:01:51.314Z,630.00
2018-06-07T17:03:23.135Z,438.75
2018-06-07T17:04:54.758Z,528.75
2018-06-07T17:09:30.245Z,444.38
2018-06-07T17:11:02.236Z,433.13
2018-06-07T17:12:33.854Z,354.38
2018-06-07T17:14:05.731Z,343.13
2018-06-07T17:15:37.495Z,286.88
2018-06-07T17:18:41.784Z,219.38
2018-06-07T17:20:13.257Z,202.50
2018-06-07T17:21:44.835Z,196.88
2018-06-07T17:23:16.790Z,213.75
2018-06-07T17:24:48.397Z,309.38
2018-06-07T17:29:23.850Z,298.13
2018-06-07T17:30:55.667Z,388.13
2018-06-07T17:32:27.788Z,337.50
2018-06-07T17:35:31.117Z,326.25
2018-06-07T17:37:03.236Z,247.50
2018-06-07T17:38:34.863Z,360.00
2018-06-07T17:40:06.579Z,495.00
2018-06-07T17:41:39.274Z,371.25
2018-06-07T17:43:10.204Z,360.00
2018-06-07T17:46:14.142Z,416.25
2018-06-07T17:47:45.705Z,438.75
2018-06-07T17:49:17.673Z,376.88
2018-06-07T17:50:50.226Z,343.13
2018-06-07T17:56:56.859Z,258.75
2018-06-07T17:58:28.611Z,292.50
2018-06-07T18:00:00.283Z,275.63
2018-06-07T18:01:32.058Z,236.25
2018-06-07T18:03:05.452Z,202.50
2018-06-07T18:04:36.691Z,208.13
2018-06-07T18:07:39.276Z,236.25
2018-06-07T18:09:11.603Z,241.88
2018-06-07T18:10:43.563Z,230.63
2018-06-07T18:13:46.560Z,202.50
2018-06-07T18:15:18.459Z,196.88
2018-06-07T18:16:50.412Z,253.13
2018-06-07T18:18:22.102Z,219.38
2018-06-07T18:21:26.129Z,196.88
2018-06-07T18:22:58.377Z,185.63
2018-06-07T18:24:29.461Z,202.50
2018-06-07T18:27:33.021Z,213.75
2018-06-07T18:29:04.727Z,185.63
2018-06-07T18:30:36.519Z,196.88
2018-06-07T18:32:08.370Z,202.50
2018-06-07T18:33:40.776Z,585.00
2018-06-07T18:35:12.113Z,855.00
2018-06-07T18:36:43.843Z,410.63
2018-06-07T18:39:47.777Z,523.13
2018-06-07T18:41:19.396Z,1445.63
2018-06-07T18:42:51.353Z,1451.25
2018-06-07T18:44:22.893Z,1389.38
2018-06-07T18:45:55.248Z,624.38
2018-06-07T18:49:10.665Z,1310.63
2018-06-07T18:53:45.687Z,472.50
2018-06-07T18:55:17.403Z,540.00
2018-06-07T18:56:49.838Z,753.75
2018-06-07T18:58:21.067Z,759.38
2018-06-07T18:59:53.464Z,590.63
2018-06-07T19:01:24.675Z,405.00
2018-06-07T19:02:56.696Z,545.63
2018-06-07T19:04:28.322Z,382.50
2018-06-07T19:06:00.408Z,1119.38
2018-06-07T19:07:32.395Z,416.25
2018-06-07T19:09:05.565Z,393.75
2018-06-07T19:10:35.756Z,348.75
2018-06-07T19:12:08.260Z,281.25
2018-06-07T19:13:39.752Z,253.13
2018-06-07T19:15:11.036Z,225.00
2018-06-07T19:16:43.083Z,208.13
2018-06-07T19:18:15.094Z,202.50
2018-06-07T19:19:46.690Z,180.00
2018-06-07T19:21:18.304Z,168.75
2018-06-07T19:22:50.121Z,151.88
2018-06-07T19:24:22.139Z,146.25
2018-06-07T19:27:25.571Z,118.13
2018-06-07T19:28:57.693Z,112.50
2018-06-07T19:30:29.314Z,101.25
2018-06-07T19:32:01.022Z,95.63
2018-06-07T19:35:04.655Z,129.38
2018-06-07T19:36:36.473Z,151.88
2018-06-07T19:38:08.367Z,151.88
2018-06-07T19:39:40.100Z,135.00
2018-06-07T19:41:12.119Z,135.00
2018-06-07T19:42:43.734Z,129.38
2018-06-07T19:44:15.553Z,112.50
2018-06-07T19:45:47.566Z,101.25
2018-06-07T19:47:19.181Z,84.38
2018-06-07T19:48:51.096Z,73.13
2018-06-07T19:50:23.014Z,67.50
2018-06-07T19:51:54.626Z,67.50
2018-06-07T19:53:26.443Z,61.88
2018-06-07T19:54:58.258Z,61.88
2018-06-07T19:56:30.097Z,56.25
2018-06-07T19:58:01.894Z,45.00
2018-06-07T19:59:33.704Z,33.75
2018-06-07T20:01:05.536Z,28.13
2018-06-07T20:02:37.351Z,22.50
2018-06-07T20:04:09.178Z,22.50
2018-06-07T20:07:12.879Z,16.88
2018-06-07T20:08:44.664Z,16.88
2018-06-07T20:10:16.435Z,16.88
2018-06-07T20:11:48.499Z,11.25
2018-06-07T20:13:20.194Z,11.25
2018-06-07T20:14:51.855Z,11.25
2018-06-07T20:16:23.669Z,11.25
2018-06-07T20:17:55.483Z,11.25
2018-06-07T20:19:27.299Z,11.25
2018-06-07T20:20:59.113Z,11.25
2018-06-07T20:22:30.932Z,11.25
2018-06-07T20:24:02.945Z,5.63
2018-06-07T20:25:34.562Z,5.63
2018-06-07T20:27:06.374Z,5.63
2018-06-07T20:28:38.189Z,5.63
2018-06-07T20:30:10.101Z,0.00
2018-06-07T20:31:41.815Z,0.00
2018-06-07T20:33:13.723Z,0.00
2018-06-07T20:34:45.444Z,0.00
2018-06-07T20:36:17.259Z,0.00
2018-06-07T20:37:49.074Z,0.00
2018-06-07T20:39:20.887Z,0.00
2018-06-07T20:40:52.732Z,0.00
2018-06-07T20:42:24.518Z,0.00
2018-06-07T20:43:56.332Z,0.00
2018-06-07T20:45:28.147Z,0.00
2018-06-07T20:46:59.961Z,0.00
2018-06-07T20:48:31.876Z,0.00
2018-06-07T20:50:04.175Z,0.00
2018-06-07T20:51:35.402Z,0.00
2018-06-07T20:53:07.216Z,0.00
2018-06-07T20:54:39.031Z,0.00
2018-06-07T20:56:10.845Z,0.00
2018-06-07T20:57:42.660Z,0.00
2018-06-07T20:59:14.477Z,0.00
2018-06-07T21:00:46.320Z,0.00
2018-06-07T21:02:18.102Z,0.00
2018-06-07T21:03:49.917Z,0.00
2018-06-07T21:05:21.731Z,0.00
2018-06-07T21:06:53.645Z,0.00
2018-06-07T21:08:25.460Z,0.00
2018-06-07T21:09:57.174Z,0.00
2018-06-07T21:11:28.988Z,0.00
2018-06-07T21:16:47.689Z,0.00
2018-06-07T21:17:59.984Z,0.00
2018-06-07T21:19:31.799Z,0.00
2018-06-07T21:21:03.623Z,0.00
2018-06-07T21:22:35.415Z,0.00